Airfield :
LOGIN :

Register | Disclaimer

   EN    FR    IT 

 










Legend :    VFR   Marginal VFR   IFR   Intensive IFR   Very Intensive IFR
Visi :
Ceiling :
>= 8 km
>= 3000ft
5 to 8 km
1000 to 3000 ft
1500m to 5 km
500 to 1000 ft
800 to 1500m
200 to 500 ft
< 800m
< 200 ft
Symbols :   Thunderstorms  Fog  Heavy snow  Heavy precipitations  Wind > 20 kt
SIGMETs :     Misc.  Thunderstorms  Icing  Turbulence  Mountain Waves  Volcanic Ashes






- Airport Elevation : 2297 ft


LEGA - Armilla

CURRENT METAR :
  • 250730Z 17007KT CAVOK 01/M00 Q1026

EXPIRED METARs :
  • 250700Z 17005KT CAVOK 01/M00 Q1026
  • 250630Z 17005KT CAVOK 01/M00 Q1026
  • 250600Z 17007KT CAVOK 02/M00 Q1026

TAF TAF LEGA
Valid from the 25 at 06:00 until the 26 at 06:00 UTC


250500Z 2506/2606 VRB02KT 9999 FEW040 SCT100 TX14/2515Z TN01/2507Z
PROB40
TEMPO 2516/2519 18010KT



MET'MAP, your aeronautical weather chart ! - Copyright ORBIFLY December 2007 - Disclaimer

ORBIFLY MET'MAP TEAM :

Programming & Development : Alexandra Zaïnal
Original concept : Baudouin d'Aumeries
Technical & hardware support : Manuel Goepfert
Assistance : Marc-Olivier Méhu

Contact : metmap@orbifly.com




SOURCES & CREDITS :

   NOAA